Elk Springs, Colorado
Current Conditions -  °F | °C
As of 2:53 AM on Thursday 23 Oct 2014 (Local Time) from KEEO Reporting Station
Clear Clear  
Wind Chill: 32°   Ceiling: Unl
Heat Index: 36°   Visibility: 10mi
Dew Point: 32°   Wind: 5mph
Humidity: 86%   Direction: 80°E
Pressure: 30.27"   Gusts: NA
Location:  40.3181°N, 108.361°W
Report Text: KEEO 230853Z AUTO 08004KT 10SM CLR 02/00 A3027 RMK AO2 SLP213 T00220000 53007 FZRANO
Loading
Personal Weather Stations






























Interactive Weather Map
Tropical Storm Tracking
New forecast layout! Learn more

10-Day Weather Forecast

Advertisements
Track Severe Weather on mobile